Torrington, WY

9:03 PM MDT on May 26, 2015 (GMT -0600)
Torrington Main St Mkt | | Change Station
CLOSE
Current Station
Personal Weather Station
Location: Torrington, WY
Elevation: 4094 ft
Nearby Weather Stations
Active Advisory: Flood Warning

Elev 4094 ft 42.06 °N, 104.18 °W | Updated 2 minutes ago

Rain
Rain
61.0 °F
Feels Like 61.0 °F
N
0.0
Wind Variable Wind from SW
Gusts 8.0 mph

Today
High -- | Low -- °F
--% Chance of Precip.
Yesterday
High -- | Low -- °F
Precip. -- in
5:27 AM 8:21 PM
Waxing Gibbous, 63% visible
Pressure 29.92 in
Visibility 7.0 miles
Clouds Few 4600 ft
Mostly Cloudy 7000 ft
Overcast 9000 ft
Dew Point 54 °F
Humidity 78%
Rainfall 0.05 in
Snow Depth Not available.
UV 0 out of 12
Pollen 7.10 out of 12
Air Quality Not available.
Flu Activity Sporadic
METAR KTOR 270253Z AUTO 10009KT 7SM RA FEW046 BKN070 OVC090 16/12 A2999 RMK AO2 RAB19 SLP130 P0003 60003 T01610117 53011

More Conditions Fewer Conditions

Pressure 29.92 in
Visibility 7.0 miles
Clouds Few 4600 ft
Mostly Cloudy 7000 ft
Overcast 9000 ft
Dew Point 54 °F
Humidity 78%
Rainfall 0.05 in
Snow Depth Not available.
UV 0 out of 12
Pollen 7.10 out of 12
Air Quality Not available.
Flu Activity Sporadic
METAR KTOR 270253Z AUTO 10009KT 7SM RA FEW046 BKN070 OVC090 16/12 A2999 RMK AO2 RAB19 SLP130 P0003 60003 T01610117 53011

More Conditions Fewer Conditions

10-Day Weather Forecast

Almanac

Astronomy

May. 26, 2015 Rise Set
Actual Time
Civil Twilight
Nautical Twilight
Astronomical Twilight
Moon
Length of Visible Light
Length of Day
Tomorrow will be .
, % of the Moon is Illuminated

Today's Extremes

State Highs State Lows

Community

WunderPhotos

Upload Photos

1,824,577 photos uploaded!

WunderBlogs® & News

Nearby

Air Quality

  Air Quality AQ Index Pollutant
Not available.

Snow Depth

Station Depth Elevation

Earthquake Activity

City Distance Mag. Time & Date
Minimum magnitude displayed is 2.5.

Coastal Water Temperatures

Place Temperature

Stations

Nearby Weather Stations

Station Location Temp. Windchill Dew Point Humidity Wind Precip. Elev Updated Type
                   
Flood Warning
Statement as of 8:56 PM MDT on May 26, 2015

* Flood Warning continues for
the Laramie river near Fort Laramie
* the stage will crest around 8.7 feet at 12 am Wednesday.
* The river will remain steady wendesday and then begin to
slowly fall.


Flood impacts and crest history information is displayed at:
http:///water.Weather.Gov/ahps2/index.Php?Wfo=cys&gage=flaw4

* impact... at 9.0 feet... major flooding occurs at Fort Laramie State
Park. River is overflowing along the right bank. Only minor
flooding occurs at the town of Fort Laramie.
* Flood history... this crest compares to a previous crest of 8.7 feet
on Jun 14 1970.


Lat... Lon 4212 10468 4225 10468 4223 10451 4216 10446
      4212 10449

Sml